NSZ2766 EFHK-EGKK
Flight info
| Callsign | NSZ2766 |
|---|---|
| Flight time | N/A |
| Altitude | 34000 |
| Route | KUVEM Y366 USITU DCT VADIN DCT AMADA DCT LONAM DCT BINBO DCT AKOKO N866 BUKUT P7 BARMI |
| Aircraft | B738/M-SDE2E3FGHIRWXY/LB1 |
Departure
| Time | N/A |
|---|---|
| Airport | Helsinki Vantaa Airport (EFHK) |
Arrival
| Time | 2026-05-07 20:14 |
|---|---|
| Airport | London Gatwick Airport (EGKK) |
| Time | Latitude | Longitude | Altitude | Speed | Heading |
|---|---|---|---|---|---|
| 2026-05-07 19:35 | 52.19546 | 2.34481 | 34092 ft | 409 kts | 207° |
| 2026-05-07 19:36 | 52.15743 | 2.31518 | 34092 ft | 408 kts | 207° |
| 2026-05-07 19:36 | 52.10612 | 2.27546 | 34094 ft | 407 kts | 207° |
| 2026-05-07 19:37 | 52.05289 | 2.24445 | 34099 ft | 412 kts | 189° |
| 2026-05-07 19:37 | 52.02397 | 2.24375 | 33736 ft | 422 kts | 176° |
| 2026-05-07 19:37 | 51.99481 | 2.25381 | 32714 ft | 435 kts | 163° |
| 2026-05-07 19:38 | 51.96659 | 2.27414 | 31460 ft | 453 kts | 154° |
| 2026-05-07 19:38 | 51.93895 | 2.29910 | 30900 ft | 451 kts | 152° |
| 2026-05-07 19:38 | 51.91226 | 2.32445 | 30746 ft | 439 kts | 152° |
| 2026-05-07 19:38 | 51.88658 | 2.34918 | 30550 ft | 429 kts | 152° |
| 2026-05-07 19:39 | 51.86123 | 2.37377 | 30309 ft | 421 kts | 152° |
| 2026-05-07 19:39 | 51.83640 | 2.39796 | 30030 ft | 413 kts | 152° |
| 2026-05-07 19:39 | 51.81139 | 2.42004 | 29701 ft | 403 kts | 161° |
| 2026-05-07 19:39 | 51.79364 | 2.42932 | 29505 ft | 394 kts | 171° |
| 2026-05-07 19:40 | 51.75826 | 2.43224 | 29118 ft | 378 kts | 191° |
| 2026-05-07 19:40 | 51.74136 | 2.42617 | 28937 ft | 375 kts | 201° |
| 2026-05-07 19:40 | 51.71086 | 2.39967 | 28583 ft | 374 kts | 221° |
| 2026-05-07 19:40 | 51.69317 | 2.36935 | 28308 ft | 369 kts | 237° |
| 2026-05-07 19:41 | 51.68004 | 2.33431 | 27930 ft | 361 kts | 243° |
| 2026-05-07 19:41 | 51.67269 | 2.31010 | 27148 ft | 367 kts | 246° |
| 2026-05-07 19:41 | 51.66268 | 2.27188 | 26151 ft | 372 kts | 248° |
| 2026-05-07 19:41 | 51.65313 | 2.23291 | 25145 ft | 376 kts | 249° |
| 2026-05-07 19:42 | 51.64357 | 2.19343 | 24188 ft | 380 kts | 249° |
| 2026-05-07 19:42 | 51.63385 | 2.15360 | 23172 ft | 382 kts | 249° |
| 2026-05-07 19:42 | 51.62076 | 2.10071 | 21486 ft | 389 kts | 248° |
| 2026-05-07 19:42 | 51.61391 | 2.07336 | 20589 ft | 394 kts | 248° |
| 2026-05-07 19:43 | 51.60361 | 2.03246 | 19312 ft | 399 kts | 248° |
| 2026-05-07 19:43 | 51.59308 | 1.99089 | 18023 ft | 403 kts | 248° |
| 2026-05-07 19:43 | 51.58247 | 1.94915 | 16644 ft | 404 kts | 247° |
| 2026-05-07 19:43 | 51.57180 | 1.90729 | 15327 ft | 405 kts | 247° |
| 2026-05-07 19:44 | 51.56130 | 1.86618 | 14818 ft | 387 kts | 247° |
| 2026-05-07 19:44 | 51.55137 | 1.82733 | 14555 ft | 365 kts | 247° |
| 2026-05-07 19:44 | 51.54199 | 1.79067 | 14293 ft | 346 kts | 246° |
| 2026-05-07 19:44 | 51.53306 | 1.75588 | 14129 ft | 327 kts | 246° |
| 2026-05-07 19:45 | 51.52461 | 1.72296 | 14092 ft | 310 kts | 246° |
| 2026-05-07 19:45 | 51.51648 | 1.69139 | 14084 ft | 305 kts | 246° |
| 2026-05-07 19:45 | 51.50833 | 1.65982 | 14091 ft | 306 kts | 246° |
| 2026-05-07 19:45 | 51.50027 | 1.62864 | 14090 ft | 307 kts | 246° |
| 2026-05-07 19:46 | 51.49207 | 1.59692 | 14090 ft | 307 kts | 246° |
| 2026-05-07 19:46 | 51.48386 | 1.56520 | 14088 ft | 307 kts | 246° |
| 2026-05-07 19:46 | 51.47566 | 1.53353 | 14088 ft | 308 kts | 246° |
| 2026-05-07 19:46 | 51.46745 | 1.50189 | 14089 ft | 307 kts | 246° |
| 2026-05-07 19:47 | 51.45927 | 1.47035 | 14084 ft | 307 kts | 246° |
| 2026-05-07 19:47 | 51.45105 | 1.43878 | 14078 ft | 306 kts | 246° |
| 2026-05-07 19:47 | 51.44280 | 1.40716 | 14082 ft | 306 kts | 246° |
| 2026-05-07 19:47 | 51.43485 | 1.38092 | 14068 ft | 305 kts | 234° |
| 2026-05-07 19:48 | 51.43327 | 1.37732 | 14068 ft | 304 kts | 231° |
| 2026-05-07 19:49 | 51.41810 | 1.35401 | 14092 ft | 302 kts | 217° |
| 2026-05-07 19:49 | 51.40149 | 1.33404 | 14073 ft | 296 kts | 216° |
| 2026-05-07 19:49 | 51.38451 | 1.31432 | 14092 ft | 310 kts | 216° |
| 2026-05-07 19:49 | 51.36665 | 1.29366 | 14093 ft | 319 kts | 216° |
| 2026-05-07 19:50 | 51.34860 | 1.27267 | 14086 ft | 321 kts | 216° |
| 2026-05-07 19:50 | 51.33067 | 1.25172 | 14075 ft | 319 kts | 216° |
| 2026-05-07 19:50 | 51.31266 | 1.23061 | 14068 ft | 318 kts | 216° |
| 2026-05-07 19:50 | 51.29485 | 1.20968 | 14072 ft | 317 kts | 216° |
| 2026-05-07 19:51 | 51.27707 | 1.18877 | 14074 ft | 317 kts | 216° |
| 2026-05-07 19:51 | 51.25932 | 1.16790 | 14077 ft | 317 kts | 216° |
| 2026-05-07 19:51 | 51.24149 | 1.14694 | 14077 ft | 318 kts | 216° |
| 2026-05-07 19:51 | 51.22369 | 1.12603 | 14079 ft | 318 kts | 216° |
| 2026-05-07 19:52 | 51.20599 | 1.10526 | 14077 ft | 319 kts | 216° |
| 2026-05-07 19:52 | 51.18806 | 1.08424 | 14080 ft | 319 kts | 216° |
| 2026-05-07 19:52 | 51.17015 | 1.06326 | 14076 ft | 320 kts | 216° |
| 2026-05-07 19:52 | 51.15220 | 1.04225 | 14077 ft | 320 kts | 216° |
| 2026-05-07 19:53 | 51.13422 | 1.02121 | 14081 ft | 321 kts | 216° |
| 2026-05-07 19:53 | 51.11621 | 1.00016 | 14073 ft | 321 kts | 216° |
| 2026-05-07 19:53 | 51.09840 | 0.97938 | 14078 ft | 321 kts | 216° |
| 2026-05-07 19:53 | 51.08044 | 0.95846 | 14077 ft | 321 kts | 216° |
| 2026-05-07 19:54 | 51.06256 | 0.93660 | 14069 ft | 321 kts | 224° |
| 2026-05-07 19:54 | 51.04959 | 0.90822 | 14084 ft | 320 kts | 242° |
| 2026-05-07 19:54 | 51.03985 | 0.87630 | 14077 ft | 321 kts | 244° |
| 2026-05-07 19:54 | 51.03054 | 0.84395 | 14075 ft | 321 kts | 245° |
| 2026-05-07 19:55 | 51.02126 | 0.81176 | 14065 ft | 319 kts | 244° |
| 2026-05-07 19:55 | 51.01196 | 0.77997 | 13836 ft | 317 kts | 244° |
| 2026-05-07 19:55 | 51.00260 | 0.74843 | 13439 ft | 315 kts | 244° |
| 2026-05-07 19:55 | 50.99317 | 0.71690 | 12988 ft | 316 kts | 244° |
| 2026-05-07 19:56 | 50.98374 | 0.68549 | 12594 ft | 314 kts | 244° |
| 2026-05-07 19:56 | 50.97438 | 0.65439 | 12234 ft | 312 kts | 244° |
| 2026-05-07 19:56 | 50.96500 | 0.62327 | 11871 ft | 310 kts | 244° |
| 2026-05-07 19:56 | 50.95573 | 0.59251 | 11508 ft | 309 kts | 244° |
| 2026-05-07 19:57 | 50.94650 | 0.56191 | 11154 ft | 307 kts | 244° |
| 2026-05-07 19:57 | 50.93731 | 0.53150 | 10713 ft | 305 kts | 244° |
| 2026-05-07 19:57 | 50.92819 | 0.50136 | 10435 ft | 301 kts | 244° |
| 2026-05-07 19:57 | 50.91874 | 0.47286 | 10489 ft | 291 kts | 241° |
| 2026-05-07 19:58 | 50.90929 | 0.44476 | 10404 ft | 288 kts | 243° |
| 2026-05-07 19:58 | 50.89987 | 0.41688 | 10154 ft | 286 kts | 243° |
| 2026-05-07 19:58 | 50.89175 | 0.39067 | 9633 ft | 292 kts | 245° |
| 2026-05-07 19:58 | 50.88330 | 0.36003 | 8948 ft | 302 kts | 248° |
| 2026-05-07 19:59 | 50.87647 | 0.32889 | 8593 ft | 293 kts | 260° |
| 2026-05-07 19:59 | 50.87840 | 0.29815 | 8456 ft | 277 kts | 293° |
| 2026-05-07 19:59 | 50.89013 | 0.27512 | 8148 ft | 273 kts | 326° |
| 2026-05-07 19:59 | 50.90812 | 0.26698 | 8032 ft | 272 kts | 2° |
| 2026-05-07 20:00 | 50.92665 | 0.27324 | 8016 ft | 276 kts | 8° |
| 2026-05-07 20:00 | 50.94594 | 0.27226 | 7987 ft | 281 kts | 345° |
| 2026-05-07 20:00 | 50.96305 | 0.25814 | 7956 ft | 279 kts | 313° |
| 2026-05-07 20:00 | 50.97250 | 0.23199 | 7966 ft | 276 kts | 282° |
| 2026-05-07 20:01 | 50.97477 | 0.20190 | 7979 ft | 275 kts | 272° |
| 2026-05-07 20:01 | 50.97567 | 0.17144 | 7963 ft | 277 kts | 272° |
| 2026-05-07 20:01 | 50.97655 | 0.14104 | 7908 ft | 275 kts | 272° |
| 2026-05-07 20:01 | 50.97744 | 0.11101 | 7778 ft | 271 kts | 272° |
| 2026-05-07 20:02 | 50.97827 | 0.08248 | 7432 ft | 273 kts | 272° |
| 2026-05-07 20:02 | 50.97913 | 0.05251 | 7145 ft | 271 kts | 272° |
| 2026-05-07 20:02 | 50.97999 | 0.02247 | 7101 ft | 275 kts | 272° |
| 2026-05-07 20:02 | 50.98085 | -0.00816 | 7079 ft | 277 kts | 272° |
| 2026-05-07 20:03 | 50.98170 | -0.03860 | 7073 ft | 274 kts | 272° |
| 2026-05-07 20:03 | 50.98254 | -0.06856 | 7056 ft | 270 kts | 272° |
| 2026-05-07 20:03 | 50.98336 | -0.09844 | 7072 ft | 272 kts | 272° |
| 2026-05-07 20:03 | 50.98417 | -0.12790 | 6981 ft | 269 kts | 272° |
| 2026-05-07 20:04 | 50.98496 | -0.15745 | 6674 ft | 267 kts | 272° |
| 2026-05-07 20:04 | 50.98572 | -0.18701 | 6202 ft | 270 kts | 272° |
| 2026-05-07 20:04 | 50.98645 | -0.21692 | 5746 ft | 271 kts | 272° |
| 2026-05-07 20:04 | 50.98716 | -0.24695 | 5306 ft | 272 kts | 272° |
| 2026-05-07 20:05 | 50.98789 | -0.27684 | 4952 ft | 270 kts | 272° |
| 2026-05-07 20:05 | 50.98863 | -0.30651 | 4564 ft | 269 kts | 272° |
| 2026-05-07 20:05 | 50.98936 | -0.33612 | 4187 ft | 268 kts | 272° |
| 2026-05-07 20:05 | 50.99004 | -0.36514 | 4045 ft | 257 kts | 272° |
| 2026-05-07 20:06 | 50.99067 | -0.39275 | 3923 ft | 243 kts | 272° |
| 2026-05-07 20:06 | 50.99127 | -0.41901 | 3669 ft | 236 kts | 272° |
| 2026-05-07 20:06 | 50.99187 | -0.44492 | 3309 ft | 235 kts | 272° |
| 2026-05-07 20:06 | 50.99256 | -0.47078 | 3009 ft | 235 kts | 276° |
| 2026-05-07 20:07 | 50.99859 | -0.49444 | 2986 ft | 238 kts | 314° |
| 2026-05-07 20:07 | 51.01231 | -0.50810 | 3002 ft | 234 kts | 340° |
| 2026-05-07 20:07 | 51.02763 | -0.51749 | 3008 ft | 233 kts | 340° |
| 2026-05-07 20:07 | 51.04275 | -0.52667 | 3004 ft | 232 kts | 341° |
| 2026-05-07 20:08 | 51.05784 | -0.53561 | 2988 ft | 231 kts | 345° |
| 2026-05-07 20:08 | 51.07319 | -0.53600 | 3002 ft | 220 kts | 16° |
| 2026-05-07 20:08 | 51.08769 | -0.53132 | 2832 ft | 210 kts | 21° |
| 2026-05-07 20:08 | 51.10062 | -0.51942 | 2083 ft | 221 kts | 44° |
| 2026-05-07 20:09 | 51.10945 | -0.50252 | 2414 ft | 186 kts | 60° |
| 2026-05-07 20:09 | 51.11485 | -0.48425 | 2648 ft | 180 kts | 74° |
| 2026-05-07 20:09 | 51.11701 | -0.46474 | 2925 ft | 180 kts | 88° |
| 2026-05-07 20:10 | 51.11597 | -0.42412 | 2688 ft | 188 kts | 75° |
| 2026-05-07 20:10 | 51.11928 | -0.40432 | 2485 ft | 183 kts | 79° |
| 2026-05-07 20:10 | 51.12174 | -0.38456 | 2226 ft | 180 kts | 79° |
| 2026-05-07 20:10 | 51.12426 | -0.36533 | 2056 ft | 173 kts | 79° |
| 2026-05-07 20:11 | 51.12670 | -0.34728 | 1997 ft | 161 kts | 79° |
| 2026-05-07 20:11 | 51.12909 | -0.32969 | 1814 ft | 163 kts | 79° |
| 2026-05-07 20:11 | 51.13147 | -0.31216 | 1580 ft | 161 kts | 79° |
| 2026-05-07 20:11 | 51.13382 | -0.29494 | 1374 ft | 154 kts | 79° |
| 2026-05-07 20:12 | 51.13596 | -0.27923 | 1177 ft | 140 kts | 78° |
| 2026-05-07 20:12 | 51.13796 | -0.26458 | 953 ft | 133 kts | 78° |
| 2026-05-07 20:12 | 51.13992 | -0.25015 | 806 ft | 134 kts | 78° |
| 2026-05-07 20:12 | 51.14190 | -0.23544 | 653 ft | 139 kts | 77° |
| 2026-05-07 20:13 | 51.14403 | -0.22033 | 424 ft | 136 kts | 77° |
| 2026-05-07 20:13 | 51.14598 | -0.20628 | 252 ft | 123 kts | 78° |
| 2026-05-07 20:13 | 51.14761 | -0.19413 | 213 ft | 98 kts | 78° |
| 2026-05-07 20:13 | 51.14880 | -0.18546 | 209 ft | 63 kts | 77° |
| 2026-05-07 20:14 | 51.14959 | -0.18032 | 212 ft | 30 kts | 66° |
| 2026-05-07 20:14 | 51.15065 | -0.17781 | 208 ft | 19 kts | 44° |
| 2026-05-07 20:14 | 51.15104 | -0.17757 | 208 ft | 0 kts | 356° |
| 2026-05-07 20:15 | 51.15107 | -0.17757 | 208 ft | 2 kts | 356° |
| 2026-05-07 20:15 | 51.15147 | -0.17762 | 208 ft | 9 kts | 352° |
| 2026-05-07 20:15 | 51.15232 | -0.17778 | 207 ft | 11 kts | 6° |
| 2026-05-07 20:16 | 51.15265 | -0.17702 | 208 ft | 10 kts | 76° |
| 2026-05-07 20:16 | 51.15282 | -0.17575 | 206 ft | 7 kts | 80° |
| 2026-05-07 20:16 | 51.15287 | -0.17542 | 206 ft | 0 kts | 76° |
| 2026-05-07 20:16 | 51.15288 | -0.17531 | 206 ft | 4 kts | 77° |
| 2026-05-07 20:17 | 51.15296 | -0.17455 | 209 ft | 9 kts | 81° |
| 2026-05-07 20:17 | 51.15298 | -0.17443 | 210 ft | 0 kts | 79° |
| 2026-05-07 20:17 | 51.15298 | -0.17442 | 210 ft | 1 kts | 79° |
| 2026-05-07 20:17 | 51.15305 | -0.17395 | 217 ft | 7 kts | 69° |
| 2026-05-07 20:18 | 51.15341 | -0.17364 | 210 ft | 7 kts | 10° |
| 2026-05-07 20:18 | 51.15369 | -0.17297 | 208 ft | 12 kts | 72° |
| 2026-05-07 20:18 | 51.15398 | -0.17153 | 210 ft | 9 kts | 58° |
| 2026-05-07 20:18 | 51.15409 | -0.17103 | 211 ft | 3 kts | 78° |
| 2026-05-07 20:19 | 51.15418 | -0.17072 | 210 ft | 1 kts | 31° |
| 2026-05-07 20:19 | 51.15448 | -0.17079 | 206 ft | 9 kts | 348° |
| 2026-05-07 20:19 | 51.15466 | -0.17085 | 217 ft | 0 kts | 347° |